createdAt,value
2019-06-10T00:01:21.481Z,21.17
2019-06-10T00:03:51.709Z,17.87
2019-06-10T00:06:21.247Z,20.03
2019-06-10T00:08:50.715Z,23.47
2019-06-10T00:11:21.207Z,26.53
2019-06-10T00:13:50.847Z,17.83
2019-06-10T00:16:20.805Z,19.20
2019-06-10T00:18:51.068Z,22.40
2019-06-10T00:21:21.737Z,18.77
2019-06-10T00:23:51.871Z,21.30
2019-06-10T00:26:21.650Z,22.27
2019-06-10T00:28:51.591Z,22.93
2019-06-10T00:31:20.953Z,19.67
2019-06-10T00:33:51.910Z,21.57
2019-06-10T00:36:21.721Z,21.47
2019-06-10T00:38:51.693Z,26.47
2019-06-10T00:41:21.870Z,25.07
2019-06-10T00:43:51.865Z,20.87
2019-06-10T00:46:21.321Z,31.50
2019-06-10T00:48:50.965Z,19.53
2019-06-10T00:51:21.082Z,24.43
2019-06-10T00:53:51.429Z,23.03
2019-06-10T00:56:21.695Z,22.00
2019-06-10T00:58:51.633Z,20.27
2019-06-10T01:01:21.951Z,24.30
2019-06-10T01:03:51.806Z,20.20
2019-06-10T01:06:21.512Z,22.33
2019-06-10T01:08:51.344Z,25.27
2019-06-10T01:11:26.612Z,25.43
2019-06-10T01:13:52.244Z,27.23
2019-06-10T01:16:21.806Z,22.60
2019-06-10T01:18:53.424Z,24.20
2019-06-10T01:21:22.115Z,21.70
2019-06-10T01:23:51.617Z,23.07
2019-06-10T01:26:21.607Z,23.90
2019-06-10T01:28:51.752Z,25.80
2019-06-10T01:31:24.350Z,26.60
2019-06-10T01:33:53.232Z,27.60
2019-06-10T01:36:22.427Z,24.40
2019-06-10T01:38:52.022Z,23.80
2019-06-10T01:41:21.546Z,24.70
2019-06-10T01:43:51.454Z,23.67
2019-06-10T01:46:21.346Z,20.43
2019-06-10T01:48:52.106Z,25.40
2019-06-10T01:51:21.901Z,20.87
2019-06-10T01:53:51.715Z,24.73
2019-06-10T01:56:21.713Z,23.90
2019-06-10T01:58:51.609Z,24.33
2019-06-10T02:01:33.648Z,24.20
2019-06-10T02:04:03.234Z,23.90
2019-06-10T02:06:32.372Z,24.73
2019-06-10T02:09:08.888Z,21.43
2019-06-10T02:11:41.152Z,29.00
2019-06-10T02:14:14.307Z,20.50
2019-06-10T02:16:41.424Z,23.53
2019-06-10T02:19:13.988Z,22.10
2019-06-10T02:21:42.535Z,25.53
2019-06-10T02:24:14.359Z,23.37
2019-06-10T02:26:42.965Z,22.60
2019-06-10T02:29:13.168Z,27.77
2019-06-10T02:31:43.682Z,23.07
2019-06-10T02:34:17.535Z,26.13
2019-06-10T02:36:44.761Z,25.73
2019-06-10T02:39:21.533Z,26.17
2019-06-10T02:41:45.191Z,23.73
2019-06-10T02:44:18.675Z,20.70
2019-06-10T02:46:46.093Z,31.40
2019-06-10T02:49:29.700Z,23.43
2019-06-10T02:51:46.230Z,22.20
2019-06-10T02:54:18.099Z,26.37
2019-06-10T02:56:46.647Z,27.00
2019-06-10T02:59:16.705Z,24.07
2019-06-10T03:01:46.816Z,21.60
2019-06-10T03:04:16.687Z,24.63
2019-06-10T03:06:46.943Z,23.40
2019-06-10T03:09:16.610Z,24.30
2019-06-10T03:11:46.995Z,28.40
2019-06-10T03:14:17.738Z,19.77
2019-06-10T03:16:52.810Z,21.63
2019-06-10T03:19:39.733Z,22.00
2019-06-10T03:21:53.418Z,27.20
2019-06-10T03:24:25.128Z,21.20
2019-06-10T03:26:53.683Z,22.70
2019-06-10T03:29:24.936Z,23.37
2019-06-10T03:31:55.508Z,22.97
2019-06-10T03:34:33.488Z,22.70
2019-06-10T03:36:55.829Z,19.73
2019-06-10T03:39:27.392Z,23.77
2019-06-10T03:41:56.701Z,25.40
2019-06-10T03:44:27.101Z,24.50
2019-06-10T03:46:56.869Z,21.33
2019-06-10T03:49:27.491Z,23.07
2019-06-10T03:51:57.413Z,23.13
2019-06-10T03:54:29.301Z,19.97
2019-06-10T03:56:58.213Z,19.67
2019-06-10T03:59:29.546Z,20.67
2019-06-10T04:01:58.643Z,21.10
2019-06-10T04:04:28.403Z,21.03
2019-06-10T04:06:57.681Z,18.43
2019-06-10T04:09:27.477Z,18.67
2019-06-10T04:11:57.751Z,23.20
2019-06-10T04:14:28.484Z,19.20
2019-06-10T04:16:57.774Z,19.97
2019-06-10T04:19:27.496Z,15.10
2019-06-10T04:21:58.098Z,16.07
2019-06-10T04:24:28.524Z,17.40
2019-06-10T04:26:57.880Z,20.17
2019-06-10T04:29:28.950Z,15.67
2019-06-10T04:31:58.274Z,14.23
2019-06-10T04:34:30.166Z,18.50
2019-06-10T04:36:58.531Z,15.97
2019-06-10T04:39:29.180Z,24.57
2019-06-10T04:41:58.874Z,12.70
2019-06-10T04:44:29.402Z,11.30
2019-06-10T04:46:58.612Z,15.23
2019-06-10T04:49:28.652Z,14.97
2019-06-10T04:51:58.755Z,15.97
2019-06-10T04:54:28.677Z,12.70
2019-06-10T04:56:59.037Z,15.93
2019-06-10T04:59:30.081Z,15.50
2019-06-10T05:01:59.162Z,17.40
2019-06-10T05:04:30.062Z,11.73
2019-06-10T05:06:59.378Z,13.20
2019-06-10T05:09:29.414Z,13.70
2019-06-10T05:11:59.777Z,13.17
2019-06-10T05:14:30.369Z,22.30
2019-06-10T05:17:02.060Z,12.17
2019-06-10T05:19:33.531Z,12.23
2019-06-10T05:22:03.101Z,14.97
2019-06-10T05:24:34.434Z,13.47
2019-06-10T05:27:04.215Z,13.27
2019-06-10T05:29:34.249Z,14.17
2019-06-10T05:32:03.806Z,17.77
2019-06-10T05:34:34.710Z,13.93
2019-06-10T05:37:08.259Z,15.83
2019-06-10T05:39:37.689Z,17.00
2019-06-10T05:42:06.916Z,13.17
2019-06-10T05:44:36.493Z,14.87
2019-06-10T05:47:06.853Z,16.53
2019-06-10T05:49:36.461Z,15.07
2019-06-10T05:52:05.629Z,16.23
2019-06-10T05:54:35.518Z,15.20
2019-06-10T05:57:04.944Z,17.97
2019-06-10T05:59:35.895Z,14.40
2019-06-10T06:02:05.395Z,20.77
2019-06-10T06:04:36.127Z,18.40
2019-06-10T06:07:05.468Z,19.57
2019-06-10T06:09:35.321Z,15.87
2019-06-10T06:12:04.838Z,20.37
2019-06-10T06:14:35.916Z,16.83
2019-06-10T06:17:04.969Z,15.63
2019-06-10T06:19:37.324Z,14.67
2019-06-10T06:22:05.315Z,18.07
2019-06-10T06:24:35.711Z,22.33
2019-06-10T06:27:05.078Z,23.53
2019-06-10T06:29:36.578Z,16.20
2019-06-10T06:32:06.234Z,12.67
2019-06-10T06:34:37.473Z,16.33
2019-06-10T06:37:06.285Z,18.63
2019-06-10T06:39:36.818Z,17.93
2019-06-10T06:42:06.721Z,22.03
2019-06-10T06:44:37.739Z,19.33
2019-06-10T06:47:06.906Z,14.70
2019-06-10T06:49:37.072Z,14.37
2019-06-10T06:52:07.015Z,17.17
2019-06-10T06:54:37.740Z,17.37
2019-06-10T06:57:07.361Z,19.83
2019-06-10T06:59:38.664Z,18.60
2019-06-10T07:02:08.397Z,16.90
2019-06-10T07:04:38.743Z,19.13
2019-06-10T07:07:08.176Z,17.60
2019-06-10T07:09:38.961Z,14.37
2019-06-10T07:12:08.464Z,15.70
2019-06-10T07:14:40.566Z,17.37
2019-06-10T07:17:12.453Z,14.30
2019-06-10T07:19:42.069Z,14.33
2019-06-10T07:22:13.468Z,15.30
2019-06-10T07:24:47.329Z,15.33
2019-06-10T07:27:13.580Z,15.27
2019-06-10T07:29:47.034Z,13.77
2019-06-10T07:32:14.249Z,16.23
2019-06-10T07:34:46.768Z,14.87
2019-06-10T07:37:14.706Z,12.93
2019-06-10T07:39:45.311Z,14.90
2019-06-10T07:42:14.968Z,16.33
2019-06-10T07:44:45.337Z,19.43
2019-06-10T07:47:15.052Z,12.90
2019-06-10T07:49:45.686Z,17.37
2019-06-10T07:52:19.398Z,15.03
2019-06-10T07:54:46.304Z,12.30
2019-06-10T07:57:15.548Z,15.90
2019-06-10T07:59:46.003Z,18.10
2019-06-10T08:02:15.669Z,15.30
2019-06-10T08:04:46.011Z,13.80
2019-06-10T08:07:15.413Z,14.63
2019-06-10T08:09:45.789Z,18.47
2019-06-10T08:12:15.277Z,14.43
2019-06-10T08:14:45.756Z,15.07
2019-06-10T08:17:15.106Z,15.27
2019-06-10T08:19:49.570Z,16.53
2019-06-10T08:22:29.797Z,15.73
2019-06-10T08:24:47.786Z,14.10
2019-06-10T08:27:17.547Z,15.40
2019-06-10T08:29:49.591Z,16.33
2019-06-10T08:32:18.089Z,12.97
2019-06-10T08:34:48.128Z,19.47
2019-06-10T08:37:17.668Z,12.73
2019-06-10T08:39:47.677Z,13.57
2019-06-10T08:42:17.298Z,17.27
2019-06-10T08:44:48.439Z,15.90
2019-06-10T08:47:17.386Z,17.53
2019-06-10T08:49:49.017Z,14.73
2019-06-10T08:52:18.594Z,14.63
2019-06-10T08:54:50.941Z,15.37
2019-06-10T08:57:18.849Z,14.07
2019-06-10T08:59:49.309Z,14.30
2019-06-10T09:02:19.425Z,16.77
2019-06-10T09:04:50.572Z,14.83
2019-06-10T09:07:19.523Z,15.33
2019-06-10T09:09:50.371Z,16.73
2019-06-10T09:12:30.307Z,15.33
2019-06-10T09:14:52.972Z,15.63
2019-06-10T09:17:22.852Z,18.87
2019-06-10T09:19:54.145Z,21.63
2019-06-10T09:22:23.858Z,19.40
2019-06-10T09:24:56.337Z,22.13
2019-06-10T09:27:27.005Z,21.77
2019-06-10T09:29:55.737Z,24.27
2019-06-10T09:32:24.922Z,20.80
2019-06-10T09:34:57.450Z,17.07
2019-06-10T09:37:25.055Z,18.13
2019-06-10T09:39:59.357Z,21.73
2019-06-10T09:42:25.810Z,21.60
2019-06-10T09:44:55.693Z,23.67
2019-06-10T09:47:25.697Z,23.57
2019-06-10T09:49:55.822Z,26.53
2019-06-10T09:52:25.247Z,18.33
2019-06-10T09:54:56.780Z,20.53
2019-06-10T09:57:25.303Z,26.03
2019-06-10T09:59:56.487Z,25.13
2019-06-10T10:02:26.245Z,22.93
2019-06-10T10:04:58.274Z,22.53
2019-06-10T10:07:27.673Z,22.17
2019-06-10T10:09:57.487Z,26.80
2019-06-10T10:12:27.011Z,22.83
2019-06-10T10:14:56.652Z,24.37
2019-06-10T10:17:26.308Z,26.20
2019-06-10T10:19:57.024Z,28.23
2019-06-10T10:22:27.088Z,18.90
2019-06-10T10:24:57.001Z,27.27
2019-06-10T10:27:26.363Z,23.50
2019-06-10T10:29:57.343Z,23.47
2019-06-10T10:32:26.751Z,20.37
2019-06-10T10:34:56.606Z,16.23
2019-06-10T10:37:25.898Z,16.90
2019-06-10T10:39:56.598Z,17.63
2019-06-10T10:42:39.138Z,20.83
2019-06-10T10:44:59.249Z,16.70
2019-06-10T10:47:28.391Z,20.97
2019-06-10T10:49:57.562Z,18.17
2019-06-10T10:52:26.855Z,19.90
2019-06-10T10:54:56.129Z,16.27
2019-06-10T10:57:25.738Z,18.17
2019-06-10T10:59:56.219Z,12.07
2019-06-10T11:02:25.650Z,18.63
2019-06-10T11:04:57.032Z,15.30
2019-06-10T11:07:26.115Z,16.37
2019-06-10T11:09:56.795Z,17.70
2019-06-10T11:12:27.303Z,16.47
2019-06-10T11:17:34.316Z,14.30
2019-06-10T11:20:04.058Z,14.13
2019-06-10T11:22:33.254Z,15.47
2019-06-10T11:25:02.506Z,15.67
2019-06-10T11:27:33.221Z,14.97
2019-06-10T11:30:02.583Z,14.43
2019-06-10T11:32:32.793Z,14.50
2019-06-10T11:35:02.987Z,13.77
2019-06-10T11:37:32.626Z,13.27
2019-06-10T11:40:02.837Z,15.43
2019-06-10T11:42:33.464Z,15.53
2019-06-10T11:45:03.018Z,13.70
2019-06-10T11:47:32.974Z,14.80
2019-06-10T11:50:03.499Z,14.97
2019-06-10T11:52:33.632Z,14.83
2019-06-10T11:55:11.899Z,14.30
2019-06-10T11:57:34.831Z,14.70
2019-06-10T12:00:13.667Z,15.67
2019-06-10T12:02:35.802Z,15.17
2019-06-10T12:05:05.903Z,16.83
2019-06-10T12:07:35.150Z,15.00
2019-06-10T12:10:05.684Z,18.77
2019-06-10T12:12:34.912Z,16.73
2019-06-10T12:15:04.818Z,18.10
2019-06-10T12:17:45.595Z,18.73
2019-06-10T12:20:06.425Z,19.50
2019-06-10T12:22:36.033Z,17.33
2019-06-10T12:25:29.445Z,19.27
2019-06-10T12:27:36.626Z,16.80
2019-06-10T12:30:07.239Z,19.03
2019-06-10T12:32:36.442Z,19.13
2019-06-10T12:35:06.465Z,19.10
2019-06-10T12:37:35.817Z,18.47
2019-06-10T12:40:06.083Z,20.90
2019-06-10T12:42:35.369Z,20.03
2019-06-10T12:45:08.445Z,18.27
2019-06-10T12:47:37.138Z,19.13
2019-06-10T12:50:07.397Z,18.67
2019-06-10T12:52:36.742Z,18.80
2019-06-10T12:55:06.945Z,18.57
2019-06-10T12:57:36.564Z,18.07
2019-06-10T13:00:19.363Z,16.27
2019-06-10T13:02:38.833Z,17.67
2019-06-10T13:05:09.373Z,20.90
2019-06-10T13:07:39.307Z,18.33
2019-06-10T13:10:09.441Z,21.17
2019-06-10T13:12:38.614Z,21.80
2019-06-10T13:15:09.001Z,19.33
2019-06-10T13:17:38.317Z,20.27
2019-06-10T13:20:08.379Z,20.40
2019-06-10T13:22:37.770Z,21.33
2019-06-10T13:25:07.456Z,19.37
2019-06-10T13:27:37.074Z,19.27
2019-06-10T13:30:08.325Z,20.13
2019-06-10T13:32:38.080Z,20.17
2019-06-10T13:35:07.705Z,20.30
2019-06-10T13:37:37.509Z,18.23
2019-06-10T13:40:09.799Z,19.40
2019-06-10T13:42:38.384Z,18.67
2019-06-10T13:45:09.514Z,20.83
2019-06-10T13:47:39.069Z,23.57
2019-06-10T13:50:13.734Z,19.33
2019-06-10T13:52:42.592Z,18.63
2019-06-10T13:55:13.613Z,18.73
2019-06-10T13:57:44.790Z,18.00
2019-06-10T14:00:15.336Z,19.00
2019-06-10T14:02:44.991Z,17.87
2019-06-10T14:05:18.191Z,18.93
2019-06-10T14:07:46.175Z,20.43
2019-06-10T14:10:18.139Z,19.27
2019-06-10T14:12:49.018Z,17.87
2019-06-10T14:15:18.428Z,17.53
2019-06-10T14:17:48.247Z,20.03
2019-06-10T14:20:18.521Z,22.33
2019-06-10T14:22:48.165Z,18.93
2019-06-10T14:25:17.733Z,19.17
2019-06-10T14:27:47.031Z,19.57
2019-06-10T14:30:17.986Z,18.50
2019-06-10T14:32:48.196Z,19.37
2019-06-10T14:35:17.726Z,19.43
2019-06-10T14:37:47.380Z,19.90
2019-06-10T14:40:21.002Z,17.30
2019-06-10T14:42:48.289Z,20.80
2019-06-10T14:45:17.654Z,17.30
2019-06-10T14:47:47.448Z,18.20
2019-06-10T14:50:17.453Z,19.07
2019-06-10T14:52:46.868Z,19.60
2019-06-10T14:55:18.366Z,22.73
2019-06-10T14:57:47.141Z,20.93
2019-06-10T15:00:18.250Z,23.97
2019-06-10T15:02:47.666Z,20.80
2019-06-10T15:05:17.542Z,20.83
2019-06-10T15:07:48.156Z,22.47
2019-06-10T15:10:19.857Z,20.57
2019-06-10T15:12:49.258Z,24.67
2019-06-10T15:15:20.447Z,24.13
2019-06-10T15:17:52.486Z,24.87
2019-06-10T15:20:22.733Z,22.50
2019-06-10T15:22:52.725Z,22.37
2019-06-10T15:25:27.839Z,21.97
2019-06-10T15:27:52.965Z,19.93
2019-06-10T15:30:26.775Z,29.33
2019-06-10T15:32:53.390Z,22.00
2019-06-10T15:35:24.536Z,21.73
2019-06-10T15:37:53.914Z,23.73
2019-06-10T15:40:23.206Z,21.23
2019-06-10T15:42:53.293Z,22.43
2019-06-10T15:45:23.210Z,23.70
2019-06-10T15:47:53.124Z,21.63
2019-06-10T15:50:23.485Z,24.80
2019-06-10T15:52:53.897Z,22.47
2019-06-10T15:55:49.319Z,23.63
2019-06-10T15:57:54.417Z,22.97
2019-06-10T16:00:28.772Z,21.87
2019-06-10T16:02:55.160Z,24.43
2019-06-10T16:05:25.364Z,23.70
2019-06-10T16:07:55.184Z,24.67
2019-06-10T16:10:27.900Z,24.60
2019-06-10T16:12:55.459Z,24.03
2019-06-10T16:15:26.535Z,21.73
2019-06-10T16:17:55.975Z,22.57
2019-06-10T16:20:25.785Z,22.63
2019-06-10T16:22:55.292Z,24.57
2019-06-10T16:25:26.503Z,24.53
2019-06-10T16:27:55.591Z,23.07
2019-06-10T16:30:26.097Z,25.07
2019-06-10T16:32:55.440Z,26.17
2019-06-10T16:35:26.812Z,23.23
2019-06-10T16:37:56.916Z,23.50
2019-06-10T16:40:27.215Z,22.73
2019-06-10T16:42:56.583Z,17.17
2019-06-10T16:45:30.291Z,14.67
2019-06-10T16:47:57.025Z,8.10
2019-06-10T16:50:27.436Z,6.77
2019-06-10T16:52:56.952Z,7.23
2019-06-10T16:55:27.229Z,9.37
2019-06-10T16:57:59.566Z,5.83
2019-06-10T17:00:27.768Z,7.27
2019-06-10T17:02:57.091Z,5.67
2019-06-10T17:05:27.567Z,5.67
2019-06-10T17:07:57.342Z,6.93
2019-06-10T17:10:28.167Z,4.80
2019-06-10T17:13:03.301Z,3.73
2019-06-10T17:15:32.863Z,4.10
2019-06-10T17:18:02.940Z,3.73
2019-06-10T17:20:34.177Z,5.30
2019-06-10T17:23:26.508Z,3.83
2019-06-10T17:25:55.537Z,3.83
2019-06-10T17:28:28.890Z,6.53
2019-06-10T17:30:57.065Z,6.33
2019-06-10T17:33:28.253Z,5.23
2019-06-10T17:35:57.452Z,5.37
2019-06-10T17:38:27.004Z,4.70
2019-06-10T17:40:56.259Z,6.80
2019-06-10T17:43:25.481Z,6.27
2019-06-10T17:45:55.158Z,7.00
2019-06-10T17:48:26.350Z,7.33
2019-06-10T17:50:55.702Z,12.17
2019-06-10T17:53:26.154Z,6.10
2019-06-10T17:55:55.750Z,6.10
2019-06-10T17:58:40.514Z,5.33
2019-06-10T18:00:56.219Z,4.57
2019-06-10T18:03:26.578Z,5.63
2019-06-10T18:05:56.449Z,6.60
2019-06-10T18:08:26.008Z,5.10
2019-06-10T18:10:55.518Z,4.73
2019-06-10T18:13:26.177Z,5.80
2019-06-10T18:15:55.795Z,6.27
2019-06-10T18:18:26.330Z,5.90
2019-06-10T18:20:55.705Z,4.23
2019-06-10T18:23:26.397Z,3.53
2019-06-10T18:25:55.649Z,5.80
2019-06-10T18:28:24.981Z,3.73
2019-06-10T18:30:54.248Z,6.67
2019-06-10T18:33:23.412Z,5.37
2019-06-10T18:35:53.328Z,4.93
2019-06-10T18:38:22.816Z,5.37
2019-06-10T18:40:53.550Z,5.20
2019-06-10T18:43:23.318Z,4.27
2019-06-10T18:45:53.512Z,6.93
2019-06-10T18:48:23.304Z,7.93
2019-06-10T18:50:53.295Z,10.33
2019-06-10T18:53:23.782Z,6.97
2019-06-10T18:55:54.817Z,6.73
2019-06-10T18:58:24.347Z,7.13
2019-06-10T19:01:03.531Z,7.77
2019-06-10T19:03:24.849Z,6.97
2019-06-10T19:05:54.014Z,7.90
2019-06-10T19:08:23.875Z,6.30
2019-06-10T19:10:53.769Z,5.53
2019-06-10T19:13:23.142Z,5.43
2019-06-10T19:15:53.095Z,6.53
2019-06-10T19:18:23.516Z,7.93
2019-06-10T19:20:53.694Z,6.10
2019-06-10T19:23:23.120Z,7.07
2019-06-10T19:25:52.735Z,7.97
2019-06-10T19:28:22.777Z,8.17
2019-06-10T19:30:53.463Z,7.60
2019-06-10T19:33:23.865Z,12.80
2019-06-10T19:35:53.623Z,13.07
2019-06-10T19:38:23.368Z,9.57
2019-06-10T19:40:52.970Z,10.00
2019-06-10T19:43:22.197Z,10.20
2019-06-10T19:45:53.017Z,7.70
2019-06-10T19:48:22.460Z,6.73
2019-06-10T19:50:53.827Z,7.70
2019-06-10T19:53:22.839Z,6.27
2019-06-10T19:55:53.337Z,5.90
2019-06-10T19:58:23.324Z,6.30
2019-06-10T20:00:54.459Z,11.50
2019-06-10T20:03:23.614Z,7.60
2019-06-10T20:05:53.072Z,10.07
2019-06-10T20:08:22.689Z,15.20
2019-06-10T20:10:53.093Z,9.83
2019-06-10T20:13:23.054Z,9.27
2019-06-10T20:15:53.178Z,12.33
2019-06-10T20:18:22.861Z,11.10
2019-06-10T20:20:54.037Z,13.70
2019-06-10T20:23:23.436Z,12.10
2019-06-10T20:25:52.905Z,8.23
2019-06-10T20:28:22.590Z,10.20
2019-06-10T20:30:52.943Z,11.73
2019-06-10T20:33:37.070Z,8.07
2019-06-10T20:36:07.952Z,9.17
2019-06-10T20:38:35.951Z,5.87
2019-06-10T20:41:05.178Z,5.90
2019-06-10T20:43:34.392Z,8.13
2019-06-10T20:46:05.956Z,5.67
2019-06-10T20:48:34.477Z,6.87
2019-06-10T20:51:03.755Z,5.17
2019-06-10T20:53:33.726Z,3.03
2019-06-10T20:56:03.943Z,5.40
2019-06-10T20:58:33.747Z,3.73
2019-06-10T21:01:04.711Z,6.70
2019-06-10T21:03:33.924Z,2.83
2019-06-10T21:06:04.959Z,2.77
2019-06-10T21:08:34.872Z,2.80
2019-06-10T21:11:04.036Z,4.57
2019-06-10T21:13:33.307Z,5.50
2019-06-10T21:16:03.521Z,4.47
2019-06-10T21:18:33.469Z,3.70
2019-06-10T21:21:03.424Z,4.47
2019-06-10T21:23:33.018Z,2.90
2019-06-10T21:26:03.151Z,8.93
2019-06-10T21:28:32.641Z,2.23
2019-06-10T21:31:02.799Z,5.60
2019-06-10T21:33:33.439Z,4.80
2019-06-10T21:36:04.020Z,3.33
2019-06-10T21:38:33.853Z,4.97
2019-06-10T21:41:03.609Z,5.37
2019-06-10T21:43:33.217Z,7.60
2019-06-10T21:46:03.768Z,3.23
2019-06-10T21:48:33.249Z,6.17
2019-06-10T21:51:02.479Z,3.50
2019-06-10T21:53:31.710Z,4.90
2019-06-10T21:56:00.865Z,4.67
2019-06-10T21:58:30.024Z,6.30
2019-06-10T22:01:11.602Z,5.00
2019-06-10T22:03:32.235Z,8.17
2019-06-10T22:06:01.681Z,4.30
2019-06-10T22:08:32.738Z,6.13
2019-06-10T22:11:02.564Z,3.60
2019-06-10T22:13:32.846Z,4.83
2019-06-10T22:16:03.230Z,5.93
2019-06-10T22:18:33.409Z,6.67
2019-06-10T22:21:02.966Z,6.83
2019-06-10T22:23:33.095Z,3.57
2019-06-10T22:26:02.891Z,4.33
2019-06-10T22:28:32.809Z,4.57
2019-06-10T22:31:16.106Z,4.40
2019-06-10T22:33:33.396Z,7.03
2019-06-10T22:36:02.607Z,8.97
2019-06-10T22:38:32.883Z,4.60
2019-06-10T22:41:03.304Z,6.63
2019-06-10T22:43:32.740Z,2.67
2019-06-10T22:46:04.024Z,5.40
2019-06-10T22:48:33.383Z,4.30
2019-06-10T22:51:02.780Z,3.50
2019-06-10T22:53:33.326Z,8.63
2019-06-10T22:56:03.164Z,6.87
2019-06-10T22:58:32.693Z,4.17
2019-06-10T23:01:04.138Z,6.73
2019-06-10T23:03:32.802Z,4.17
2019-06-10T23:06:02.653Z,3.57
2019-06-10T23:08:33.416Z,5.60
2019-06-10T23:11:02.979Z,8.03
2019-06-10T23:13:32.422Z,5.13
2019-06-10T23:16:02.544Z,7.07
2019-06-10T23:18:32.217Z,5.13
2019-06-10T23:21:04.431Z,8.33
2019-06-10T23:23:33.282Z,3.40
2019-06-10T23:26:02.986Z,6.70
2019-06-10T23:28:32.779Z,9.80
2019-06-10T23:31:04.951Z,4.47
2019-06-10T23:33:33.234Z,13.07
2019-06-10T23:36:03.938Z,10.17
2019-06-10T23:38:33.274Z,8.00
2019-06-10T23:41:03.740Z,13.23
2019-06-10T23:43:33.321Z,8.67
2019-06-10T23:46:04.299Z,10.77
2019-06-10T23:48:33.445Z,7.10
2019-06-10T23:51:04.684Z,6.83
2019-06-10T23:53:33.867Z,6.83
2019-06-10T23:56:04.834Z,6.40
2019-06-10T23:58:34.670Z,4.70
